createdAt,value
2019-04-11T00:00:25.446Z,2.90
2019-04-11T00:01:36.149Z,2.60
2019-04-11T00:02:25.517Z,2.70
2019-04-11T00:03:25.117Z,2.80
2019-04-11T00:04:24.493Z,2.50
2019-04-11T00:05:24.486Z,2.50
2019-04-11T00:06:25.601Z,2.60
2019-04-11T00:07:24.616Z,2.70
2019-04-11T00:08:24.483Z,2.80
2019-04-11T00:09:24.891Z,2.60
2019-04-11T00:10:24.971Z,3.00
2019-04-11T00:11:24.426Z,2.60
2019-04-11T00:12:24.409Z,2.60
2019-04-11T00:13:27.598Z,2.60
2019-04-11T00:14:24.408Z,2.80
2019-04-11T00:15:24.549Z,2.60
2019-04-11T00:16:25.463Z,2.90
2019-04-11T00:17:24.359Z,2.40
2019-04-11T00:18:24.969Z,2.60
2019-04-11T00:19:24.346Z,2.50
2019-04-11T00:20:25.494Z,2.50
2019-04-11T00:21:24.624Z,2.80
2019-04-11T00:22:24.323Z,2.50
2019-04-11T00:23:24.292Z,2.40
2019-04-11T00:24:25.037Z,3.20
2019-04-11T00:25:25.274Z,2.50
2019-04-11T00:26:24.464Z,2.60
2019-04-11T00:27:24.643Z,2.80
2019-04-11T00:28:24.237Z,2.60
2019-04-11T00:29:24.242Z,2.60
2019-04-11T00:30:24.217Z,2.60
2019-04-11T00:31:25.167Z,2.80
2019-04-11T00:32:25.340Z,2.30
2019-04-11T00:33:24.812Z,2.40
2019-04-11T00:34:24.208Z,2.70
2019-04-11T00:35:24.166Z,2.70
2019-04-11T00:36:24.296Z,2.70
2019-04-11T00:37:25.210Z,2.40
2019-04-11T00:38:24.141Z,2.60
2019-04-11T00:39:24.120Z,2.90
2019-04-11T00:40:24.897Z,2.90
2019-04-11T00:41:24.106Z,2.50
2019-04-11T00:42:24.092Z,2.70
2019-04-11T00:43:31.771Z,2.60
2019-04-11T00:44:25.148Z,2.70
2019-04-11T00:45:24.078Z,2.50
2019-04-11T00:46:24.578Z,2.60
2019-04-11T00:47:24.823Z,2.80
2019-04-11T00:48:24.036Z,2.80
2019-04-11T00:49:24.242Z,2.80
2019-04-11T00:50:25.261Z,2.70
2019-04-11T00:51:24.003Z,2.90
2019-04-11T00:52:23.992Z,2.70
2019-04-11T00:53:23.981Z,2.70
2019-04-11T00:54:24.780Z,2.70
2019-04-11T00:55:23.975Z,2.90
2019-04-11T00:56:24.230Z,2.80
2019-04-11T00:57:25.115Z,2.80
2019-04-11T00:58:23.922Z,2.70
2019-04-11T00:59:24.622Z,2.80
2019-04-11T01:00:23.922Z,2.50
2019-04-11T01:01:24.025Z,2.50
2019-04-11T01:02:23.888Z,2.60
2019-04-11T01:03:24.255Z,2.60
2019-04-11T01:04:23.864Z,2.70
2019-04-11T01:05:23.860Z,2.50
2019-04-11T01:06:23.837Z,2.60
2019-04-11T01:07:24.915Z,2.70
2019-04-11T01:08:23.985Z,2.70
2019-04-11T01:09:24.257Z,2.50
2019-04-11T01:10:24.546Z,2.60
2019-04-11T01:11:23.877Z,2.50
2019-04-11T01:12:24.772Z,2.90
2019-04-11T01:13:23.861Z,2.60
2019-04-11T01:14:23.777Z,2.60
2019-04-11T01:15:23.849Z,2.60
2019-04-11T01:16:23.735Z,3.00
2019-04-11T01:17:23.728Z,2.20
2019-04-11T01:18:23.712Z,2.50
2019-04-11T01:19:24.721Z,2.40
2019-04-11T01:20:23.907Z,2.70
2019-04-11T01:21:24.280Z,2.50
2019-04-11T01:22:24.389Z,2.50
2019-04-11T01:23:23.773Z,2.60
2019-04-11T01:24:23.886Z,2.50
2019-04-11T01:25:24.394Z,2.80
2019-04-11T01:26:23.631Z,2.80
2019-04-11T01:27:23.743Z,2.60
2019-04-11T01:28:24.722Z,2.70
2019-04-11T01:29:23.599Z,2.60
2019-04-11T01:30:23.602Z,2.70
2019-04-11T01:31:23.578Z,2.60
2019-04-11T01:32:24.448Z,2.50
2019-04-11T01:33:24.119Z,2.50
2019-04-11T01:34:24.498Z,2.90
2019-04-11T01:35:23.578Z,2.40
2019-04-11T01:36:23.709Z,2.60
2019-04-11T01:37:23.912Z,2.50
2019-04-11T01:38:24.215Z,2.50
2019-04-11T01:39:23.486Z,2.50
2019-04-11T01:40:23.490Z,2.80
2019-04-11T01:41:24.581Z,2.60
2019-04-11T01:42:23.457Z,2.80
2019-04-11T01:43:24.105Z,2.70
2019-04-11T01:44:23.436Z,2.20
2019-04-11T01:45:23.421Z,2.50
2019-04-11T01:46:24.404Z,2.70
2019-04-11T01:47:23.594Z,2.70
2019-04-11T01:48:23.685Z,2.60
2019-04-11T01:49:24.047Z,2.60
2019-04-11T01:50:23.368Z,2.60
2019-04-11T01:51:23.434Z,2.40
2019-04-11T01:52:24.463Z,2.60
2019-04-11T01:53:23.336Z,2.40
2019-04-11T01:54:23.732Z,2.80
2019-04-11T01:55:24.140Z,2.70
2019-04-11T01:56:23.321Z,2.70
2019-04-11T01:57:23.292Z,2.50
2019-04-11T01:58:23.283Z,2.60
2019-04-11T01:59:23.605Z,2.30
2019-04-11T02:00:23.993Z,2.40
2019-04-11T02:01:23.266Z,2.50
2019-04-11T02:02:23.238Z,2.50
2019-04-11T02:03:23.343Z,2.70
2019-04-11T02:04:23.771Z,2.60
2019-04-11T02:05:23.209Z,2.50
2019-04-11T02:06:23.647Z,2.60
2019-04-11T02:07:23.185Z,2.70
2019-04-11T02:08:23.172Z,2.40
2019-04-11T02:09:24.089Z,2.70
2019-04-11T02:10:24.369Z,2.50
2019-04-11T02:11:23.474Z,2.30
2019-04-11T02:12:23.145Z,2.30
2019-04-11T02:13:23.777Z,2.70
2019-04-11T02:14:24.080Z,2.60
2019-04-11T02:15:24.097Z,2.40
2019-04-11T02:16:23.112Z,2.20
2019-04-11T02:17:23.093Z,2.30
2019-04-11T02:18:23.526Z,2.50
2019-04-11T02:19:23.895Z,2.60
2019-04-11T02:20:23.062Z,2.40
2019-04-11T02:21:23.043Z,2.30
2019-04-11T02:22:23.038Z,2.40
2019-04-11T02:23:23.349Z,2.30
2019-04-11T02:24:23.718Z,2.60
2019-04-11T02:25:22.998Z,2.30
2019-04-11T02:26:22.987Z,2.60
2019-04-11T02:27:23.112Z,2.20
2019-04-11T02:28:22.959Z,2.30
2019-04-11T02:29:23.490Z,2.50
2019-04-11T02:30:23.086Z,2.40
2019-04-11T02:31:23.289Z,2.60
2019-04-11T02:32:24.968Z,2.30
2019-04-11T02:33:24.769Z,2.50
2019-04-11T02:34:23.475Z,2.30
2019-04-11T02:35:24.232Z,2.60
2019-04-11T02:36:22.883Z,2.20
2019-04-11T02:37:24.213Z,2.20
2019-04-11T02:38:24.344Z,2.20
2019-04-11T02:39:24.710Z,2.20
2019-04-11T02:40:24.602Z,2.20
2019-04-11T02:41:22.965Z,2.70
2019-04-11T02:42:23.356Z,2.40
2019-04-11T02:43:25.018Z,2.40
2019-04-11T02:44:45.535Z,2.30
2019-04-11T02:45:36.382Z,2.20
2019-04-11T02:46:34.624Z,2.30
2019-04-11T02:47:27.577Z,2.00
2019-04-11T02:48:24.530Z,2.40
2019-04-11T02:49:23.755Z,2.10
2019-04-11T02:50:24.196Z,2.20
2019-04-11T02:51:23.424Z,2.30
2019-04-11T02:52:23.005Z,2.50
2019-04-11T02:53:24.481Z,2.10
2019-04-11T02:54:26.177Z,2.20
2019-04-11T02:55:22.911Z,2.20
2019-04-11T02:56:23.818Z,2.50
2019-04-11T02:57:23.489Z,2.30
2019-04-11T02:58:23.079Z,2.30
2019-04-11T02:59:22.641Z,2.10
2019-04-11T03:00:24.276Z,2.30
2019-04-11T03:01:24.120Z,2.40
2019-04-11T03:02:23.898Z,2.10
2019-04-11T03:03:23.225Z,2.40
2019-04-11T03:04:24.246Z,2.50
2019-04-11T03:05:22.580Z,2.10
2019-04-11T03:06:23.424Z,2.80
2019-04-11T03:07:22.816Z,2.10
2019-04-11T03:08:24.118Z,2.10
2019-04-11T03:09:24.098Z,2.40
2019-04-11T03:10:22.526Z,2.20
2019-04-11T03:11:24.153Z,2.50
2019-04-11T03:12:23.951Z,2.40
2019-04-11T03:13:23.319Z,2.30
2019-04-11T03:14:23.341Z,2.00
2019-04-11T03:15:37.663Z,2.20
2019-04-11T03:16:35.364Z,2.20
2019-04-11T03:17:30.768Z,2.10
2019-04-11T03:18:40.699Z,2.20
2019-04-11T03:19:37.494Z,2.30
2019-04-11T03:20:31.367Z,2.20
2019-04-11T03:21:24.450Z,2.00
2019-04-11T03:22:22.682Z,2.20
2019-04-11T03:23:23.541Z,2.40
2019-04-11T03:24:24.267Z,2.40
2019-04-11T03:25:22.631Z,2.50
2019-04-11T03:26:22.485Z,2.30
2019-04-11T03:27:24.426Z,2.30
2019-04-11T03:28:27.062Z,2.10
2019-04-11T03:29:24.259Z,2.30
2019-04-11T03:30:34.039Z,2.40
2019-04-11T03:32:08.162Z,2.20
2019-04-11T03:34:16.441Z,2.10
2019-04-11T03:35:12.335Z,2.10
2019-04-11T03:37:49.490Z,2.00
2019-04-11T03:38:48.262Z,2.10
2019-04-11T03:39:49.064Z,2.10
2019-04-11T03:40:43.920Z,2.00
2019-04-11T03:41:38.579Z,2.20
2019-04-11T03:42:41.689Z,2.10
2019-04-11T03:43:34.678Z,2.20
2019-04-11T03:44:28.992Z,2.30
2019-04-11T03:45:45.295Z,2.10
2019-04-11T03:46:40.213Z,2.00
2019-04-11T03:47:34.865Z,2.10
2019-04-11T03:48:36.860Z,2.00
2019-04-11T03:49:31.688Z,1.80
2019-04-11T03:50:26.055Z,2.00
2019-04-11T03:51:23.093Z,2.10
2019-04-11T03:52:23.751Z,1.90
2019-04-11T03:53:25.400Z,2.20
2019-04-11T03:54:23.182Z,2.10
2019-04-11T03:55:23.445Z,2.10
2019-04-11T03:56:22.137Z,2.30
2019-04-11T03:57:23.505Z,2.40
2019-04-11T03:58:23.713Z,2.30
2019-04-11T03:59:23.646Z,2.40
2019-04-11T04:00:23.745Z,2.20
2019-04-11T04:01:23.278Z,2.30
2019-04-11T04:02:22.462Z,2.30
2019-04-11T04:03:22.463Z,2.30
2019-04-11T04:04:23.705Z,2.30
2019-04-11T04:05:23.625Z,2.40
2019-04-11T04:06:23.341Z,2.30
2019-04-11T04:07:23.352Z,2.40
2019-04-11T04:08:22.456Z,2.40
2019-04-11T04:09:23.777Z,2.40
2019-04-11T04:10:23.409Z,2.40
2019-04-11T04:11:23.191Z,2.40
2019-04-11T04:12:22.729Z,2.30
2019-04-11T04:13:23.241Z,2.60
2019-04-11T04:14:21.862Z,2.50
2019-04-11T04:15:36.159Z,2.60
2019-04-11T04:16:31.106Z,2.40
2019-04-11T04:17:23.633Z,2.10
2019-04-11T04:18:23.701Z,2.40
2019-04-11T04:19:22.703Z,2.30
2019-04-11T04:20:21.814Z,2.40
2019-04-11T04:21:22.659Z,2.40
2019-04-11T04:22:22.943Z,2.20
2019-04-11T04:23:21.772Z,2.60
2019-04-11T04:24:22.840Z,2.10
2019-04-11T04:25:21.755Z,2.40
2019-04-11T04:26:22.863Z,2.10
2019-04-11T04:27:23.962Z,2.00
2019-04-11T04:28:23.298Z,2.20
2019-04-11T04:29:21.944Z,2.20
2019-04-11T04:30:22.137Z,2.30
2019-04-11T04:31:22.532Z,2.20
2019-04-11T04:32:23.712Z,2.00
2019-04-11T04:33:22.761Z,2.10
2019-04-11T04:34:21.859Z,2.00
2019-04-11T04:35:23.489Z,2.40
2019-04-11T04:36:22.320Z,2.00
2019-04-11T04:37:24.133Z,2.30
2019-04-11T04:38:23.306Z,2.10
2019-04-11T04:39:22.944Z,2.00
2019-04-11T04:40:36.113Z,1.80
2019-04-11T04:41:35.037Z,2.10
2019-04-11T04:42:30.811Z,2.30
2019-04-11T04:43:22.785Z,2.20
2019-04-11T04:44:22.950Z,2.10
2019-04-11T04:45:23.364Z,2.50
2019-04-11T04:46:34.700Z,2.10
2019-04-11T04:47:32.585Z,2.30
2019-04-11T04:48:26.377Z,2.50
2019-04-11T04:49:21.499Z,2.50
2019-04-11T04:50:22.425Z,2.70
2019-04-11T04:51:24.075Z,2.80
2019-04-11T04:52:21.493Z,3.10
2019-04-11T04:53:23.489Z,3.00
2019-04-11T04:54:22.169Z,3.10
2019-04-11T04:55:21.976Z,3.40
2019-04-11T04:56:25.979Z,3.30
2019-04-11T04:57:22.395Z,3.10
2019-04-11T04:58:22.386Z,2.90
2019-04-11T04:59:21.706Z,3.90
2019-04-11T05:00:23.186Z,3.80
2019-04-11T05:01:23.572Z,3.40
2019-04-11T05:02:21.341Z,3.50
2019-04-11T05:03:22.212Z,3.80
2019-04-11T05:04:21.324Z,3.70
2019-04-11T05:05:21.980Z,3.40
2019-04-11T05:06:21.309Z,3.40
2019-04-11T05:07:21.284Z,3.30
2019-04-11T05:08:22.745Z,79.40
2019-04-11T05:09:21.449Z,80.40
2019-04-11T05:10:22.121Z,57.90
2019-04-11T05:11:22.970Z,64.60
2019-04-11T05:12:22.644Z,62.60
2019-04-11T05:13:21.674Z,62.30
2019-04-11T05:14:21.213Z,66.30
2019-04-11T05:15:21.223Z,65.40
2019-04-11T05:16:21.192Z,65.10
2019-04-11T05:17:22.913Z,59.30
2019-04-11T05:18:21.538Z,55.90
2019-04-11T05:19:22.206Z,48.00
2019-04-11T05:20:21.902Z,43.90
2019-04-11T05:21:21.313Z,40.60
2019-04-11T05:22:22.402Z,40.50
2019-04-11T05:23:21.426Z,38.00
2019-04-11T05:24:21.107Z,35.80
2019-04-11T05:25:22.174Z,33.80
2019-04-11T05:26:21.547Z,32.40
2019-04-11T05:27:21.085Z,31.80
2019-04-11T05:28:21.434Z,29.80
2019-04-11T05:29:21.626Z,29.40
2019-04-11T05:30:21.053Z,26.00
2019-04-11T05:31:21.054Z,24.40
2019-04-11T05:32:21.939Z,23.90
2019-04-11T05:33:21.299Z,22.40
2019-04-11T05:34:21.024Z,21.00
2019-04-11T05:35:21.004Z,20.10
2019-04-11T05:36:21.010Z,19.70
2019-04-11T05:37:20.974Z,18.20
2019-04-11T05:38:21.002Z,18.20
2019-04-11T05:39:20.959Z,17.50
2019-04-11T05:40:21.139Z,17.30
2019-04-11T05:41:22.856Z,16.60
2019-04-11T05:42:24.937Z,17.00
2019-04-11T05:43:24.620Z,16.40
2019-04-11T05:44:20.998Z,13.10
2019-04-11T05:45:23.383Z,10.50
2019-04-11T05:46:31.430Z,10.00
2019-04-11T05:47:21.875Z,9.00
2019-04-11T05:48:23.980Z,8.90
2019-04-11T05:49:22.815Z,9.30
2019-04-11T05:50:22.127Z,9.30
2019-04-11T05:51:23.453Z,9.00
2019-04-11T05:52:20.824Z,9.00
2019-04-11T05:53:21.428Z,8.60
2019-04-11T05:54:20.803Z,8.30
2019-04-11T05:55:20.815Z,8.80
2019-04-11T05:56:21.768Z,8.70
2019-04-11T05:57:24.154Z,8.00
2019-04-11T05:58:21.982Z,7.80
2019-04-11T05:59:21.577Z,8.60
2019-04-11T06:00:21.480Z,8.40
2019-04-11T06:01:20.734Z,7.30
2019-04-11T06:02:21.381Z,7.40
2019-04-11T06:03:21.744Z,7.50
2019-04-11T06:04:23.736Z,7.50
2019-04-11T06:05:23.883Z,7.10
2019-04-11T06:06:21.677Z,7.00
2019-04-11T06:07:20.956Z,7.30
2019-04-11T06:08:25.444Z,7.80
2019-04-11T06:09:21.650Z,6.90
2019-04-11T06:10:20.637Z,6.70
2019-04-11T06:11:23.621Z,6.40
2019-04-11T06:12:21.242Z,7.20
2019-04-11T06:13:20.674Z,7.10
2019-04-11T06:14:20.621Z,6.30
2019-04-11T06:15:21.536Z,7.00
2019-04-11T06:16:20.900Z,6.60
2019-04-11T06:17:21.778Z,6.40
2019-04-11T06:18:29.337Z,6.10
2019-04-11T06:19:22.762Z,5.90
2019-04-11T06:20:20.535Z,6.30
2019-04-11T06:21:20.527Z,6.60
2019-04-11T06:22:21.361Z,6.60
2019-04-11T06:23:21.363Z,6.40
2019-04-11T06:24:20.491Z,6.20
2019-04-11T06:25:20.902Z,5.90
2019-04-11T06:26:21.310Z,6.00
2019-04-11T06:27:20.461Z,6.10
2019-04-11T06:28:20.470Z,5.80
2019-04-11T06:29:24.968Z,5.60
2019-04-11T06:30:21.436Z,5.70
2019-04-11T06:31:20.426Z,5.30
2019-04-11T06:32:21.564Z,5.70
2019-04-11T06:33:20.658Z,5.50
2019-04-11T06:34:23.612Z,5.40
2019-04-11T06:35:20.396Z,5.10
2019-04-11T06:36:21.010Z,5.30
2019-04-11T06:37:21.318Z,5.30
2019-04-11T06:38:20.562Z,5.70
2019-04-11T06:39:21.092Z,5.50
2019-04-11T06:40:20.334Z,5.30
2019-04-11T06:41:20.319Z,5.40
2019-04-11T06:42:21.552Z,5.00
2019-04-11T06:43:20.356Z,5.30
2019-04-11T06:44:20.303Z,5.50
2019-04-11T06:45:20.283Z,5.10
2019-04-11T06:46:20.821Z,5.30
2019-04-11T06:47:20.985Z,5.00
2019-04-11T06:48:22.305Z,5.20
2019-04-11T06:49:20.424Z,4.60
2019-04-11T06:50:20.231Z,4.60
2019-04-11T06:51:20.220Z,4.80
2019-04-11T06:52:20.949Z,4.70
2019-04-11T06:53:20.202Z,4.60
2019-04-11T06:54:21.182Z,4.50
2019-04-11T06:55:20.369Z,4.70
2019-04-11T06:56:20.972Z,4.60
2019-04-11T06:57:20.155Z,4.70
2019-04-11T06:58:21.361Z,4.60
2019-04-11T06:59:20.625Z,4.90
2019-04-11T07:00:21.052Z,4.60
2019-04-11T07:01:20.360Z,4.70
2019-04-11T07:02:22.713Z,4.70
2019-04-11T07:03:24.472Z,4.80
2019-04-11T07:04:21.857Z,4.50
2019-04-11T07:05:20.078Z,4.50
2019-04-11T07:06:20.073Z,4.60
2019-04-11T07:07:20.585Z,4.30
2019-04-11T07:08:20.256Z,4.30
2019-04-11T07:09:20.230Z,4.40
2019-04-11T07:10:20.304Z,4.70
2019-04-11T07:11:20.018Z,4.30
2019-04-11T07:12:20.021Z,4.20
2019-04-11T07:13:20.671Z,4.70
2019-04-11T07:14:20.383Z,4.50
2019-04-11T07:15:20.930Z,4.10
2019-04-11T07:16:20.082Z,4.50
2019-04-11T07:17:21.092Z,4.40
2019-04-11T07:18:20.575Z,4.50
2019-04-11T07:19:19.936Z,4.30
2019-04-11T07:20:20.752Z,4.00
2019-04-11T07:21:21.167Z,4.40
2019-04-11T07:22:20.946Z,4.20
2019-04-11T07:23:20.149Z,4.00
2019-04-11T07:24:20.320Z,4.20
2019-04-11T07:25:20.282Z,4.20
2019-04-11T07:26:20.906Z,4.00
2019-04-11T07:27:20.168Z,4.20
2019-04-11T07:28:19.843Z,3.80
2019-04-11T07:29:19.835Z,3.90
2019-04-11T07:30:22.733Z,4.10
2019-04-11T07:31:21.334Z,3.90
2019-04-11T07:32:20.247Z,4.30
2019-04-11T07:33:20.170Z,4.00
2019-04-11T07:34:21.188Z,4.00
2019-04-11T07:35:19.782Z,4.00
2019-04-11T07:36:21.004Z,3.90
2019-04-11T07:37:19.766Z,3.90
2019-04-11T07:38:20.976Z,4.10
2019-04-11T07:39:20.173Z,3.60
2019-04-11T07:40:19.723Z,3.80
2019-04-11T07:41:19.709Z,3.80
2019-04-11T07:42:21.198Z,3.70
2019-04-11T07:43:19.696Z,3.70
2019-04-11T07:44:19.692Z,3.70
2019-04-11T07:45:20.897Z,3.90
2019-04-11T07:46:19.899Z,3.60
2019-04-11T07:47:23.189Z,3.80
2019-04-11T07:48:19.659Z,3.70
2019-04-11T07:49:19.922Z,3.60
2019-04-11T07:50:20.294Z,3.80
2019-04-11T07:51:19.721Z,4.30
2019-04-11T07:52:20.459Z,3.60
2019-04-11T07:53:19.780Z,3.80
2019-04-11T07:54:20.297Z,3.50
2019-04-11T07:55:19.569Z,3.60
2019-04-11T07:56:20.805Z,3.70
2019-04-11T07:57:19.544Z,3.50
2019-04-11T07:58:19.547Z,3.70
2019-04-11T07:59:19.634Z,3.50
2019-04-11T08:00:33.452Z,3.90
2019-04-11T08:01:21.167Z,3.90
2019-04-11T08:02:20.510Z,3.50
2019-04-11T08:03:19.496Z,3.30
2019-04-11T08:04:19.508Z,3.40
2019-04-11T08:05:19.467Z,3.70
2019-04-11T08:06:20.027Z,3.30
2019-04-11T08:07:19.935Z,3.40
2019-04-11T08:08:19.471Z,3.30
2019-04-11T08:09:19.420Z,3.30
2019-04-11T08:10:20.516Z,3.20
2019-04-11T08:11:19.868Z,3.30
2019-04-11T08:12:19.390Z,3.30
2019-04-11T08:13:20.462Z,3.30
2019-04-11T08:14:20.251Z,3.30
2019-04-11T08:15:19.652Z,3.10
2019-04-11T08:16:20.385Z,3.20
2019-04-11T08:17:28.147Z,3.10
2019-04-11T08:18:20.870Z,3.50
2019-04-11T08:19:20.990Z,3.30
2019-04-11T08:20:19.433Z,3.20
2019-04-11T08:21:19.950Z,3.40
2019-04-11T08:22:19.285Z,2.90
2019-04-11T08:23:19.466Z,3.10
2019-04-11T08:24:20.289Z,3.30
2019-04-11T08:25:19.257Z,3.10
2019-04-11T08:26:20.034Z,3.10
2019-04-11T08:27:19.716Z,3.20
2019-04-11T08:28:20.513Z,3.20
2019-04-11T08:29:20.129Z,3.20
2019-04-11T08:30:19.215Z,3.20
2019-04-11T08:31:19.442Z,3.00
2019-04-11T08:32:19.928Z,2.70
2019-04-11T08:33:19.278Z,3.20
2019-04-11T08:34:20.342Z,3.10
2019-04-11T08:35:19.831Z,2.80
2019-04-11T08:36:19.854Z,3.20
2019-04-11T08:37:19.351Z,3.00
2019-04-11T08:38:20.309Z,2.90
2019-04-11T08:39:19.116Z,3.10
2019-04-11T08:40:19.839Z,2.80
2019-04-11T08:41:19.779Z,2.90
2019-04-11T08:42:19.132Z,2.70
2019-04-11T08:43:19.309Z,3.20
2019-04-11T08:44:19.495Z,3.20
2019-04-11T08:45:19.638Z,3.30
2019-04-11T08:46:19.077Z,3.00
2019-04-11T08:47:20.300Z,3.00
2019-04-11T08:48:19.221Z,3.00
2019-04-11T08:49:19.035Z,3.60
2019-04-11T08:50:19.035Z,2.80
2019-04-11T08:51:19.233Z,3.20
2019-04-11T08:52:20.950Z,3.00
2019-04-11T08:53:18.968Z,3.10
2019-04-11T08:54:19.509Z,3.10
2019-04-11T08:55:19.127Z,3.00
2019-04-11T08:56:19.091Z,3.30
2019-04-11T08:57:20.042Z,3.10
2019-04-11T08:58:18.915Z,2.90
2019-04-11T08:59:20.133Z,2.90
2019-04-11T09:00:18.891Z,3.00
2019-04-11T09:01:20.065Z,2.60
2019-04-11T09:02:18.871Z,2.70
2019-04-11T09:03:19.694Z,3.00
2019-04-11T09:04:18.854Z,2.80
2019-04-11T09:05:20.427Z,2.70
2019-04-11T09:06:18.962Z,2.70
2019-04-11T09:07:19.197Z,2.80
2019-04-11T09:08:18.824Z,2.70
2019-04-11T09:09:18.894Z,2.90
2019-04-11T09:10:19.942Z,2.60
2019-04-11T09:11:18.795Z,2.80
2019-04-11T09:12:18.769Z,2.80
2019-04-11T09:13:19.454Z,2.30
2019-04-11T09:14:19.762Z,2.80
2019-04-11T09:15:19.106Z,2.70
2019-04-11T09:16:18.751Z,2.50
2019-04-11T09:17:19.913Z,2.60
2019-04-11T09:18:19.679Z,2.70
2019-04-11T09:19:18.910Z,2.50
2019-04-11T09:20:19.188Z,2.90
2019-04-11T09:21:18.695Z,2.50
2019-04-11T09:22:18.668Z,2.60
2019-04-11T09:23:19.742Z,2.30
2019-04-11T09:24:18.761Z,2.30
2019-04-11T09:25:19.029Z,2.40
2019-04-11T09:26:18.639Z,2.30
2019-04-11T09:27:18.611Z,2.50
2019-04-11T09:28:19.659Z,2.40
2019-04-11T09:29:18.724Z,2.40
2019-04-11T09:30:19.050Z,2.40
2019-04-11T09:31:19.161Z,2.00
2019-04-11T09:32:18.561Z,2.40
2019-04-11T09:33:18.548Z,2.40
2019-04-11T09:34:19.577Z,2.50
2019-04-11T09:35:18.594Z,2.00
2019-04-11T09:36:19.709Z,2.50
2019-04-11T09:37:19.184Z,2.30
2019-04-11T09:38:18.492Z,2.30
2019-04-11T09:39:19.268Z,2.30
2019-04-11T09:40:19.524Z,2.50
2019-04-11T09:41:18.622Z,2.40
2019-04-11T09:42:20.178Z,2.20
2019-04-11T09:43:18.445Z,2.20
2019-04-11T09:44:18.438Z,2.30
2019-04-11T09:45:19.563Z,2.30
2019-04-11T09:46:18.634Z,2.00
2019-04-11T09:47:18.409Z,2.20
2019-04-11T09:48:19.862Z,2.80
2019-04-11T09:49:18.512Z,2.20
2019-04-11T09:50:18.382Z,2.30
2019-04-11T09:51:18.360Z,2.30
2019-04-11T09:52:18.474Z,2.30
2019-04-11T09:53:19.241Z,2.20
2019-04-11T09:54:19.674Z,2.20
2019-04-11T09:55:19.164Z,2.20
2019-04-11T09:56:18.629Z,2.20
2019-04-11T09:57:18.588Z,2.60
2019-04-11T09:58:19.413Z,2.10
2019-04-11T09:59:18.271Z,2.40
2019-04-11T10:00:18.597Z,2.30
2019-04-11T10:01:18.256Z,2.20
2019-04-11T10:02:18.812Z,2.20
2019-04-11T10:03:19.527Z,2.00
2019-04-11T10:04:18.844Z,2.10
2019-04-11T10:05:18.212Z,2.20
2019-04-11T10:06:19.367Z,2.20
2019-04-11T10:07:19.407Z,1.90
2019-04-11T10:08:18.972Z,2.10
2019-04-11T10:09:18.173Z,2.20
2019-04-11T10:10:19.046Z,2.20
2019-04-11T10:11:18.183Z,2.00
2019-04-11T10:12:18.149Z,2.20
2019-04-11T10:13:18.612Z,2.10
2019-04-11T10:14:18.119Z,2.00
2019-04-11T10:15:18.895Z,2.10
2019-04-11T10:16:18.094Z,2.10
2019-04-11T10:17:20.782Z,2.20
2019-04-11T10:18:25.341Z,1.90
2019-04-11T10:19:20.015Z,1.80
2019-04-11T10:20:18.407Z,2.10
2019-04-11T10:21:19.315Z,1.90
2019-04-11T10:22:18.567Z,1.80
2019-04-11T10:23:18.806Z,2.10
2019-04-11T10:24:20.557Z,1.90
2019-04-11T10:25:19.095Z,2.00
2019-04-11T10:26:18.155Z,1.70
2019-04-11T10:27:17.977Z,1.90
2019-04-11T10:28:17.967Z,1.70
2019-04-11T10:29:19.037Z,1.70
2019-04-11T10:30:17.949Z,1.90
2019-04-11T10:31:18.150Z,2.00
2019-04-11T10:32:19.115Z,1.80
2019-04-11T10:33:17.914Z,2.10
2019-04-11T10:34:17.979Z,2.00
2019-04-11T10:35:19.896Z,2.00
2019-04-11T10:36:18.877Z,1.80
2019-04-11T10:37:17.958Z,1.90
2019-04-11T10:38:17.865Z,1.80
2019-04-11T10:39:18.624Z,1.90
2019-04-11T10:40:20.730Z,1.80
2019-04-11T10:41:18.737Z,1.80
2019-04-11T10:42:18.105Z,1.90
2019-04-11T10:43:18.270Z,1.90
2019-04-11T10:44:18.029Z,1.80
2019-04-11T10:45:18.471Z,1.80
2019-04-11T10:46:17.777Z,1.90
2019-04-11T10:47:17.770Z,1.90
2019-04-11T10:48:17.975Z,1.80
2019-04-11T10:49:17.861Z,1.70
2019-04-11T10:50:17.763Z,1.70
2019-04-11T10:51:17.724Z,1.90
2019-04-11T10:52:18.193Z,1.70
2019-04-11T10:53:18.053Z,1.90
2019-04-11T10:54:17.702Z,1.60
2019-04-11T10:55:17.813Z,1.80
2019-04-11T10:56:18.059Z,1.90
2019-04-11T10:57:18.085Z,1.90
2019-04-11T10:58:18.457Z,1.70
2019-04-11T10:59:17.653Z,1.90
2019-04-11T11:00:18.837Z,1.70
2019-04-11T11:01:17.857Z,1.70
2019-04-11T11:02:17.616Z,1.90
2019-04-11T11:03:18.207Z,1.70
2019-04-11T11:04:18.000Z,2.50
2019-04-11T11:05:19.143Z,1.70
2019-04-11T11:06:17.708Z,2.00
2019-04-11T11:07:18.386Z,1.70
2019-04-11T11:08:17.550Z,2.10
2019-04-11T11:09:17.735Z,1.50
2019-04-11T11:10:17.592Z,1.70
2019-04-11T11:11:17.649Z,1.50
2019-04-11T11:12:17.508Z,1.90
2019-04-11T11:13:18.071Z,1.70
2019-04-11T11:14:18.610Z,1.80
2019-04-11T11:15:17.747Z,1.70
2019-04-11T11:16:17.490Z,1.60
2019-04-11T11:17:43.173Z,1.70
2019-04-11T11:18:54.074Z,1.70
2019-04-11T11:19:40.442Z,1.60
2019-04-11T11:20:26.324Z,1.50
2019-04-11T11:21:19.693Z,1.70
2019-04-11T11:22:17.423Z,1.60
2019-04-11T11:23:18.329Z,1.70
2019-04-11T11:24:17.670Z,1.80
2019-04-11T11:25:19.349Z,1.50
2019-04-11T11:26:22.635Z,1.90
2019-04-11T11:27:18.369Z,1.60
2019-04-11T11:28:18.252Z,1.90
2019-04-11T11:29:18.897Z,1.90
2019-04-11T11:30:17.323Z,1.80
2019-04-11T11:31:18.138Z,1.60
2019-04-11T11:32:17.338Z,1.80
2019-04-11T11:33:18.203Z,1.60
2019-04-11T11:34:20.010Z,1.60
2019-04-11T11:35:17.280Z,1.60
2019-04-11T11:36:17.393Z,1.60
2019-04-11T11:37:17.595Z,1.80
2019-04-11T11:38:17.771Z,1.50
2019-04-11T11:39:17.481Z,1.50
2019-04-11T11:40:18.809Z,1.60
2019-04-11T11:41:18.401Z,1.70
2019-04-11T11:42:17.899Z,1.70
2019-04-11T11:43:17.202Z,1.60
2019-04-11T11:44:19.164Z,1.50
2019-04-11T11:45:17.366Z,1.60
2019-04-11T11:46:17.798Z,1.60
2019-04-11T11:47:17.448Z,1.80
2019-04-11T11:48:19.302Z,1.70
2019-04-11T11:49:32.595Z,1.70
2019-04-11T11:50:20.388Z,1.70
2019-04-11T11:51:17.309Z,1.60
2019-04-11T11:52:17.255Z,1.60
2019-04-11T11:53:18.369Z,1.60
2019-04-11T11:54:17.698Z,1.70
2019-04-11T11:55:19.053Z,1.60
2019-04-11T11:56:17.871Z,1.50
2019-04-11T11:57:18.263Z,1.60
2019-04-11T11:58:18.762Z,1.60
2019-04-11T11:59:18.318Z,1.40
2019-04-11T12:00:17.030Z,1.80
2019-04-11T12:01:17.753Z,1.50
2019-04-11T12:02:19.317Z,1.90
2019-04-11T12:03:17.085Z,1.60
2019-04-11T12:04:17.002Z,1.70
2019-04-11T12:05:18.537Z,1.70
2019-04-11T12:06:20.806Z,1.70
2019-04-11T12:07:18.953Z,1.60
2019-04-11T12:08:18.226Z,1.50
2019-04-11T12:09:16.942Z,1.60
2019-04-11T12:10:17.386Z,1.70
2019-04-11T12:11:17.844Z,1.50
2019-04-11T12:12:17.676Z,1.80
2019-04-11T12:13:17.198Z,1.70
2019-04-11T12:14:17.988Z,1.40
2019-04-11T12:15:20.198Z,1.40
2019-04-11T12:16:19.623Z,1.60
2019-04-11T12:17:16.836Z,1.60
2019-04-11T12:18:18.623Z,1.70
2019-04-11T12:19:19.946Z,1.50
2019-04-11T12:20:16.911Z,1.40
2019-04-11T12:21:21.889Z,1.70
2019-04-11T12:22:18.078Z,1.80
2019-04-11T12:23:17.144Z,1.50
2019-04-11T12:24:17.557Z,1.50
2019-04-11T12:25:17.729Z,1.50
2019-04-11T12:26:18.044Z,1.50
2019-04-11T12:27:16.732Z,1.60
2019-04-11T12:28:17.414Z,2.10
2019-04-11T12:29:17.063Z,1.40
2019-04-11T12:30:20.946Z,1.80
2019-04-11T12:31:17.697Z,1.50
2019-04-11T12:32:16.680Z,1.30
2019-04-11T12:33:17.292Z,1.50
2019-04-11T12:34:16.667Z,1.50
2019-04-11T12:35:16.699Z,1.50
2019-04-11T12:36:16.884Z,1.50
2019-04-11T12:37:17.706Z,1.60
2019-04-11T12:38:16.636Z,1.50
2019-04-11T12:39:16.606Z,1.50
2019-04-11T12:40:16.594Z,1.80
2019-04-11T12:41:16.591Z,1.60
2019-04-11T12:42:16.604Z,1.90
2019-04-11T12:43:16.564Z,1.70
2019-04-11T12:44:16.553Z,1.60
2019-04-11T12:45:16.554Z,1.70
2019-04-11T12:46:16.557Z,1.70
2019-04-11T12:47:16.531Z,1.80
2019-04-11T12:48:16.507Z,1.70
2019-04-11T12:49:16.499Z,1.60
2019-04-11T12:50:16.490Z,1.80
2019-04-11T12:51:16.473Z,1.60
2019-04-11T12:52:16.500Z,1.70
2019-04-11T12:53:16.455Z,1.60
2019-04-11T12:54:16.454Z,1.60
2019-04-11T12:55:16.436Z,1.80
2019-04-11T12:56:16.420Z,1.60
2019-04-11T12:57:16.411Z,1.80
2019-04-11T12:58:16.413Z,1.80
2019-04-11T12:59:16.398Z,1.80
2019-04-11T13:00:16.384Z,2.20
2019-04-11T13:01:16.374Z,1.90
2019-04-11T13:02:16.418Z,2.00
2019-04-11T13:03:16.375Z,1.90
2019-04-11T13:04:16.341Z,2.00
2019-04-11T13:05:16.347Z,1.80
2019-04-11T13:06:16.313Z,2.00
2019-04-11T13:07:16.315Z,1.70
2019-04-11T13:08:16.354Z,1.90
2019-04-11T13:09:16.324Z,2.00
2019-04-11T13:10:16.276Z,1.70
2019-04-11T13:11:16.264Z,1.90
2019-04-11T13:12:16.255Z,1.90
2019-04-11T13:13:16.260Z,1.90
2019-04-11T13:14:16.233Z,1.70
2019-04-11T13:15:16.223Z,2.10
2019-04-11T13:16:16.214Z,2.00
2019-04-11T13:17:16.201Z,2.00
2019-04-11T13:18:16.221Z,2.00
2019-04-11T13:19:16.188Z,1.70
2019-04-11T13:20:16.172Z,1.90